Latest Weather Observations for Perth Airport

IDW60801

Issued at 9:33 am WST Wednesday 28 September 2016 (issued every 30 minutes, with the page automatically refreshed every 10 minutes)

About weather observations | Map of weather stations | Latest weather observations for WA | Other Formats
Station Details ID: 009021 Name: PERTH AIRPORT Lat: -31.93 Lon: 115.98 Height: 15.4 m
Data from the previous 72 hours. | See also: Recent months at Perth Airport
Date/Time
WST
Temp
°C
App
Temp
°C
Dew
Point
°C
Rel
Hum
%
Delta-T
°C
Wind Press
QNH
hPa
Press
MSL
hPa
Rain since
9am
mm
Dir  Spd
km/h
Gust
km/h
Spd
kts
Gust
kts
28/09:00am 11.7 5.1 2.1 51 4.1 S 26 35 14 19 1024.1 1024.1 7.4
28/08:30am 11.0 4.8 2.0 54 3.8 S 24 33 13 18 1023.9 1023.9 7.4
28/08:00am 10.1 4.7 2.6 59 3.2 S 20 28 11 15 1023.6 1023.6 7.4
28/07:30am 9.2 4.7 2.0 60 3.0 SSE 15 22 8 12 1023.1 1023.1 7.4
28/07:00am 8.0 4.3 2.5 68 2.3 S 11 15 6 8 1022.5 1022.5 7.4
28/06:30am 6.8 2.9 3.2 78 1.5 S 13 17 7 9 1022.0 1022.0 7.4
28/06:00am 6.5 2.1 2.9 78 1.5 S 15 19 8 10 1021.4 1021.4 7.4
28/05:30am 7.2 3.6 3.1 75 1.7 S 11 17 6 9 1020.7 1020.7 7.4
28/05:00am 6.2 2.7 3.6 83 1.1 S 11 11 6 6 1020.0 1020.0 7.4
28/04:30am 4.8 1.7 3.8 93 0.4 S 9 11 5 6 1019.8 1019.8 7.4
28/04:00am 5.6 3.9 4.2 91 0.6 SSW 2 7 1 4 1019.4 1019.4 7.4
28/03:30am 7.3 4.8 4.5 82 1.2 SSW 7 9 4 5 1019.1 1019.1 7.4
28/03:00am 6.9 4.1 5.1 88 0.8 S 9 11 5 6 1018.9 1018.9 7.4
28/02:30am 7.8 4.9 4.6 80 1.4 S 9 13 5 7 1018.5 1018.5 7.4
28/02:00am 8.2 4.6 4.8 79 1.5 S 13 17 7 9 1018.5 1018.5 7.4
28/01:30am 9.1 4.3 4.6 73 2.0 S 19 26 10 14 1018.4 1018.4 7.4
28/01:00am 9.4 4.6 4.9 73 2.0 SSW 19 24 10 13 1017.9 1017.9 7.4
28/12:30am 9.1 4.8 5.1 76 1.8 SSW 17 26 9 14 1017.5 1017.5 7.4
28/12:00am 9.2 3.8 4.7 73 2.0 S 22 30 12 16 1017.2 1017.2 7.4
 
Date/Time
WST
Temp
°C
App
Temp
°C
Dew
Point
°C
Rel
Hum
%
Delta-T
°C
Wind Press
QNH
hPa
Press
MSL
hPa
Rain since
9am
mm
Dir  Spd
km/h
Gust
km/h
Spd
kts
Gust
kts
27/11:30pm 9.8 3.0 5.1 72 2.1 SSW 30 39 16 21 1016.8 1016.8 7.4
27/11:20pm 10.2 3.7 4.6 68 2.5 SSW 28 46 15 25 1016.7 1016.7 7.4
27/11:00pm 10.1 2.9 5.2 71 2.2 SSW 32 43 17 23 1017.0 1017.0 7.4
27/10:30pm 10.1 3.4 5.7 74 2.0 SSW 30 39 16 21 1016.9 1016.9 7.4
27/10:00pm 10.6 4.2 5.1 69 2.5 SSW 28 44 15 24 1016.7 1016.7 7.2
27/09:49pm 11.2 3.7 4.3 62 3.1 SW 33 54 18 29 1016.7 1016.7 7.2
27/09:30pm 10.6 2.4 4.8 67 2.6 SSW 37 57 20 31 1016.4 1016.4 7.2
27/09:19pm 11.1 4.5 5.9 70 2.4 SW 30 63 16 34 1016.4 1016.4 7.2
27/09:00pm 11.8 4.0 3.1 55 3.8 SW 33 44 18 24 1016.2 1016.2 7.2
27/08:30pm 11.7 4.4 4.4 61 3.3 SW 32 43 17 23 1015.7 1015.7 7.2
27/08:00pm 11.5 4.4 5.4 66 2.8 SW 32 50 17 27 1015.4 1015.4 7.2
27/07:47pm 11.4 5.2 6.0 69 2.5 SW 28 48 15 26 1015.2 1015.2 7.2
27/07:30pm 10.9 5.7 7.1 77 1.8 SW 24 37 13 20 1014.8 1014.8 7.2
27/07:00pm 10.7 3.9 6.7 76 1.9 SW 32 54 17 29 1014.5 1014.5 7.0
27/06:54pm 12.5 6.2 5.7 63 3.2 SW 28 44 15 24 1014.3 1014.3 6.8
27/06:30pm 12.1 4.2 4.6 60 3.4 SW 35 48 19 26 1014.0 1014.0 6.6
27/06:00pm 13.1 5.9 5.9 61 3.4 SW 33 56 18 30 1013.5 1013.5 6.6
27/05:33pm 13.0 5.1 6.0 62 3.3 SW 37 56 20 30 1013.0 1013.0 6.6
27/05:30pm 13.0 4.7 6.0 62 3.3 SW 39 56 21 30 1012.9 1012.9 6.6
27/05:08pm 13.6 4.7 7.0 64 3.2 SW 43 61 23 33 1012.6 1012.6 6.6
27/05:00pm 14.4 5.7 7.5 63 3.4 SW 43 56 23 30 1012.5 1012.5 6.6
27/04:57pm 14.3 5.7 6.4 59 3.8 SW 41 56 22 30 1012.4 1012.4 6.6
27/04:30pm 13.1 5.5 8.9 75 2.1 SW 39 57 21 31 1012.0 1012.0 6.6
27/04:07pm 14.4 5.8 8.2 66 3.1 WSW 43 63 23 34 1011.5 1011.5 6.6
27/04:00pm 15.0 5.8 8.2 64 3.4 WSW 46 63 25 34 1011.4 1011.4 6.6
27/03:35pm 14.0 7.5 9.1 72 2.5 WSW 33 56 18 30 1011.2 1011.2 6.4
27/03:30pm 14.0 7.8 9.3 73 2.4 WSW 32 43 17 23 1011.1 1011.1 6.4
27/03:09pm 14.6 8.0 7.8 63 3.4 SW 32 54 17 29 1011.0 1011.0 6.4
27/03:00pm 14.6 10.2 8.9 68 2.9 WSW 22 33 12 18 1011.0 1011.0 6.4
27/02:30pm 12.9 9.3 10.6 86 1.2 SW 20 28 11 15 1010.9 1010.9 6.4
27/02:07pm 12.6 6.1 10.3 86 1.2 SW 35 54 19 29 1011.2 1011.2 6.2
27/02:00pm 12.6 5.3 10.3 86 1.2 SW 39 54 21 29 1011.1 1011.1 6.0
27/01:44pm 13.5 8.6 12.4 93 0.6 W 30 72 16 39 1010.9 1010.9 5.2
27/01:40pm 13.7 10.7 12.4 92 0.7 WNW 20 33 11 18 1010.4 1010.4 4.2
27/01:30pm 13.6 10.5 12.1 91 0.8 W 20 32 11 17 1010.6 1010.6 3.8
27/01:13pm 13.1 7.0 11.6 91 0.8 WNW 35 52 19 28 1010.8 1010.8 3.4
27/01:01pm 14.1 6.8 11.5 84 1.4 WNW 41 67 22 36 1010.8 1010.8 2.4
27/01:00pm 15.7 8.5 11.8 77 2.1 WNW 41 67 22 36 1010.5 1010.5 1.4
27/12:51pm 18.0 11.8 9.2 56 4.6 WNW 32 52 17 28 1009.8 1009.8 0.0
27/12:30pm 17.5 10.4 9.7 60 4.1 WNW 37 56 20 30 1010.6 1010.6 0.0
27/12:00pm 19.1 10.9 8.3 49 5.6 WNW 41 59 22 32 1011.1 1011.1 0.0
27/11:30am 18.3 12.1 9.4 56 4.7 WNW 32 50 17 27 1011.6 1011.6 0.0
27/11:16am 18.3 11.9 8.7 53 5.0 WNW 32 50 17 27 1011.8 1011.8 0.0
27/11:00am 18.2 11.1 9.7 57 4.5 WNW 37 50 20 27 1012.2 1012.2 0.0
27/10:33am 17.8 11.6 9.9 60 4.2 WNW 33 52 18 28 1012.4 1012.4 0.0
27/10:30am 17.9 12.0 10.4 61 4.0 WNW 32 43 17 23 1012.5 1012.5 0.0
27/10:00am 17.7 12.2 10.6 63 3.8 NW 30 44 16 24 1012.9 1012.9 0.0
27/09:30am 17.4 12.5 9.8 61 4.0 WNW 26 39 14 21 1013.2 1013.2 0.0
27/09:00am 17.0 12.0 8.2 56 4.5 WNW 24 35 13 19 1013.6 1013.6 2.4
27/08:30am 16.9 12.1 8.7 58 4.2 WNW 24 37 13 20 1013.7 1013.7 2.4
27/08:00am 15.8 11.8 10.3 70 2.9 WNW 22 33 12 18 1014.0 1014.0 2.4
27/07:30am 13.9 12.1 12.2 89 0.9 NNW 13 15 7 8 1014.1 1014.1 2.4
27/07:00am 13.2 11.3 11.7 91 0.8 N 13 17 7 9 1014.1 1014.1 2.4
27/06:30am 13.4 10.5 10.9 85 1.3 NW 17 26 9 14 1014.3 1014.3 2.4
27/06:00am 11.5 9.7 10.9 96 0.3 NNE 11 19 6 10 1014.7 1014.7 2.2
27/05:30am 11.6 9.8 11.0 96 0.3 NNE 11 13 6 7 1014.8 1014.8 2.2
27/05:00am 12.6 11.4 11.7 94 0.5 NW 9 11 5 6 1014.8 1014.8 2.2
27/04:30am 12.8 11.3 11.9 94 0.5 WNW 11 15 6 8 1015.0 1015.0 2.2
27/04:00am 11.4 9.6 10.8 96 0.3 ENE 11 13 6 7 1015.0 1015.0 1.8
27/03:30am 11.6 10.2 11.0 96 0.3 N 9 11 5 6 1015.3 1015.3 1.8
27/03:23am 11.6 9.8 11.0 96 0.3 NW 11 15 6 8 1015.5 1015.5 1.8
27/03:00am 11.5 9.7 10.7 95 0.4 NNE 11 22 6 12 1015.9 1015.9 1.2
27/02:30am 11.6 10.2 10.8 95 0.4 NE 9 11 5 6 1016.1 1016.1 0.8
27/02:00am 11.8 10.9 10.8 94 0.5 NNE 6 11 3 6 1016.7 1016.7 0.8
27/01:30am 11.8 9.7 11.0 95 0.4 NNE 13 15 7 8 1016.9 1016.9 0.6
27/01:00am 12.0 10.7 11.2 95 0.4 NNE 9 11 5 6 1017.3 1017.3 0.6
27/12:30am 12.1 10.1 11.5 96 0.3 NE 13 17 7 9 1017.5 1017.5 0.6
27/12:00am 12.2 10.9 11.4 95 0.4 NNE 9 13 5 7 1017.9 1017.9 0.2
 
Date/Time
WST
Temp
°C
App
Temp
°C
Dew
Point
°C
Rel
Hum
%
Delta-T
°C
Wind Press
QNH
hPa
Press
MSL
hPa
Rain since
9am
mm
Dir  Spd
km/h
Gust
km/h
Spd
kts
Gust
kts
26/11:30pm 12.4 11.5 11.5 94 0.5 NNE 7 9 4 5 1018.2 1018.2 0.2
26/11:00pm 12.6 11.3 11.3 92 0.7 NNE 9 11 5 6 1018.3 1018.3 0.0
26/10:30pm 12.4 11.6 11.1 92 0.7 NW 6 9 3 5 1018.8 1018.8 0.0
26/10:00pm 12.1 10.3 10.7 91 0.7 NW 11 13 6 7 1018.7 1018.7 0.0
26/09:30pm 12.0 10.5 10.4 90 0.8 NW 9 9 5 5 1018.8 1018.8 0.0
26/09:00pm 12.9 11.5 10.8 87 1.1 NW 9 11 5 6 1018.9 1018.9 0.0
26/08:30pm 13.9 12.1 10.7 81 1.7 NW 11 13 6 7 1018.9 1018.9 0.0
26/08:00pm 14.2 12.7 10.6 79 1.9 WNW 9 13 5 7 1018.9 1018.9 0.0
26/07:30pm 14.8 12.5 10.4 75 2.3 WNW 13 17 7 9 1018.7 1018.7 0.0
26/07:00pm 15.3 12.7 10.6 73 2.5 WNW 15 19 8 10 1018.6 1018.6 0.0
26/06:30pm 15.5 13.2 10.4 71 2.7 WNW 13 24 7 13 1018.6 1018.6 0.0
26/06:00pm 15.3 12.7 10.8 74 2.4 W 15 26 8 14 1018.6 1018.6 0.0
26/05:30pm 15.8 12.6 9.8 67 3.1 W 17 22 9 12 1018.7 1018.7 0.0
26/05:00pm 16.1 12.4 10.0 67 3.2 W 20 30 11 16 1018.6 1018.6 0.0
26/04:30pm 16.4 12.5 9.5 63 3.6 WNW 20 32 11 17 1018.5 1018.5 0.0
26/04:00pm 16.4 12.0 9.0 61 3.8 WNW 22 32 12 17 1018.6 1018.6 0.0
26/03:30pm 16.6 11.8 9.0 61 3.9 WNW 24 32 13 17 1018.6 1018.6 0.0
26/03:00pm 16.8 12.7 8.6 58 4.2 W 20 30 11 16 1018.7 1018.7 0.0
26/02:30pm 16.8 12.7 8.6 58 4.2 W 20 26 11 14 1018.7 1018.7 0.0
26/02:00pm 17.2 13.0 8.1 55 4.6 W 20 32 11 17 1018.9 1018.9 0.0
26/01:30pm 17.1 12.8 7.8 54 4.7 WNW 20 32 11 17 1019.2 1019.2 0.0
26/01:00pm 16.1 11.9 8.2 59 4.0 W 20 33 11 18 1019.6 1019.6 0.0
26/12:30pm 16.4 11.3 7.6 56 4.4 W 24 33 13 18 1020.0 1020.0 0.0
26/12:00pm 16.4 11.6 7.3 55 4.5 WNW 22 33 12 18 1020.2 1020.2 0.0
26/11:30am 16.5 12.0 6.2 50 5.0 W 19 28 10 15 1020.2 1020.2 0.0
26/11:00am 17.6 12.6 6.4 47 5.5 WNW 22 30 12 16 1020.4 1020.4 0.0
26/10:30am 16.4 10.6 6.3 51 4.9 W 26 35 14 19 1021.1 1021.1 0.0
26/10:00am 14.8 12.1 7.3 61 3.7 NNW 11 19 6 10 1021.2 1021.2 0.0
26/09:30am 14.9 11.4 7.4 61 3.7 NNE 15 19 8 10 1021.0 1021.0 0.0
26/09:00am 12.5 8.8 6.4 66 2.9 N 15 19 8 10 1021.3 1021.3 0.2
26/08:30am 11.6 8.3 6.5 71 2.4 NNE 13 17 7 9 1021.2 1021.2 0.2
26/08:00am 9.1 5.6 5.6 79 1.6 NNE 13 15 7 8 1021.0 1021.0 0.2
26/07:30am 7.5 3.9 5.2 85 1.0 NNE 13 17 7 9 1020.9 1020.9 0.2
26/07:00am 6.0 2.3 4.6 91 0.6 NNE 13 15 7 8 1020.9 1020.9 0.2
26/06:30am 5.1 1.7 4.2 94 0.4 NNE 11 11 6 6 1020.8 1020.8 0.2
26/06:00am 4.2 0.7 3.7 97 0.2 N 11 11 6 6 1020.7 1020.7 0.2
26/05:30am 4.6 1.2 3.9 95 0.3 NNE 11 13 6 7 1020.3 1020.3 0.2
26/05:00am 4.9 1.5 4.2 95 0.3 NE 11 11 6 6 1020.1 1020.1 0.2
26/04:30am 5.2 1.9 4.5 95 0.3 NNE 11 15 6 8 1020.1 1020.1 0.2
26/04:00am 4.5 1.5 4.0 97 0.2 N 9 11 5 6 1020.3 1020.3 0.2
26/03:30am 4.4 1.7 3.7 95 0.3 N 7 9 4 5 1020.3 1020.3 0.2
26/03:00am 4.2 1.1 3.7 97 0.2 N 9 11 5 6 1020.0 1020.0 0.2
26/02:30am 4.2 1.7 4.0 99 0.1 N 6 9 3 5 1020.1 1020.1 0.2
26/02:00am 4.7 2.3 4.2 97 0.2 N 6 9 3 5 1020.3 1020.3 0.2
26/01:30am 5.0 2.1 4.5 97 0.2 NNE 9 9 5 5 1020.3 1020.3 0.2
26/01:00am 4.8 2.2 4.1 95 0.3 NNE 7 9 4 5 1020.4 1020.4 0.2
26/12:30am 5.3 3.0 4.6 95 0.3 NNE 6 9 3 5 1020.9 1020.9 0.2
26/12:00am 5.4 4.2 4.5 94 0.4 CALM 0 0 0 0 1021.1 1021.1 0.2
 
Date/Time
WST
Temp
°C
App
Temp
°C
Dew
Point
°C
Rel
Hum
%
Delta-T
°C
Wind Press
QNH
hPa
Press
MSL
hPa
Rain since
9am
mm
Dir  Spd
km/h
Gust
km/h
Spd
kts
Gust
kts
25/11:30pm 5.8 4.6 4.6 92 0.5 CALM 0 0 0 0 1021.0 1021.0 0.2
25/11:00pm 6.3 5.2 5.2 93 0.5 CALM 0 0 0 0 1020.8 1020.8 0.2
25/10:30pm 6.6 5.1 5.0 89 0.7 S 2 6 1 3 1021.0 1021.0 0.2
25/10:00pm 7.3 4.9 5.3 87 0.9 S 7 9 4 5 1021.1 1021.1 0.2
25/09:30pm 9.4 6.5 4.7 72 2.1 S 9 13 5 7 1021.2 1021.2 0.2
25/09:00pm 10.3 6.1 3.9 64 2.8 S 15 17 8 9 1021.1 1021.1 0.2
25/08:30pm 11.0 6.8 3.7 60 3.2 S 15 19 8 10 1020.9 1020.9 0.2
25/08:00pm 11.6 6.6 3.4 57 3.6 SSW 19 24 10 13 1021.0 1021.0 0.2
25/07:30pm 11.9 6.8 3.3 55 3.8 SSW 19 26 10 14 1020.5 1020.5 0.2
25/07:00pm 12.4 7.3 2.8 52 4.2 SSW 19 26 10 14 1020.1 1020.1 0.2
25/06:30pm 12.9 7.2 2.9 50 4.4 SW 22 30 12 16 1019.8 1019.8 0.2
25/06:00pm 13.5 7.0 2.9 48 4.7 SW 26 32 14 17 1019.4 1019.4 0.2
25/05:30pm 14.4 7.6 3.3 47 5.0 SW 28 35 15 19 1019.0 1019.0 0.2
25/05:00pm 15.0 7.5 3.3 45 5.3 SW 32 37 17 20 1018.7 1018.7 0.2
25/04:30pm 15.6 8.1 3.6 44 5.5 SW 32 39 17 21 1018.2 1018.2 0.2
25/04:00pm 16.1 9.7 3.1 41 5.9 SW 26 33 14 18 1017.9 1017.9 0.2
25/03:30pm 16.7 10.1 4.0 43 5.9 SW 28 35 15 19 1017.6 1017.6 0.2
25/03:00pm 17.0 12.0 3.6 41 6.2 SW 19 35 10 19 1017.4 1017.4 0.2
25/02:30pm 16.7 12.9 3.8 42 6.0 SSW 13 22 7 12 1017.3 1017.3 0.2
25/02:00pm 16.9 13.6 4.6 44 5.8 SSW 11 24 6 13 1017.3 1017.3 0.2
25/01:30pm 16.7 13.6 5.4 47 5.4 SW 11 22 6 12 1017.3 1017.3 0.2
25/01:00pm 16.4 13.0 5.8 49 5.1 SSW 13 22 7 12 1017.6 1017.6 0.2
25/12:30pm 15.4 12.0 6.0 53 4.5 SSW 13 20 7 11 1018.1 1018.1 0.2
25/12:00pm 14.7 10.9 5.9 55 4.2 SSW 15 22 8 12 1018.2 1018.2 0.0
25/11:30am 14.6 10.5 6.0 56 4.1 SSW 17 28 9 15 1018.4 1018.4 0.0
25/11:00am 13.8 9.7 6.3 60 3.6 SSE 17 24 9 13 1018.3 1018.3 0.0
25/10:30am 13.7 10.1 6.9 63 3.3 SSE 15 20 8 11 1018.4 1018.4 0.0
25/10:00am 12.6 7.7 7.0 68 2.7 S 22 28 12 15 1018.5 1018.5 0.0

Other Formats:

Comma delimited format used in spreadsheet applications
http://www.bom.gov.au/fwo/IDW60801/IDW60801.94610.axf

JavaScript Object Notation format (JSON) in row-major order
http://www.bom.gov.au/fwo/IDW60801/IDW60801.94610.json